Time;durP1;ratioP1;P1;durP2;ratioP2;P2;SDS_P1;SDS_P2;PMS_P1;PMS_P2;Temp;Humidity;BMP_temperature;BMP_pressure;BME280_temperature;BME280_humidity;BME280_pressure;Samples;Min_cycle;Max_cycle;Signal;HPM_P1;HPM_P2
2022/04/16 00:00:29;;;;;;;3.00;2.80;;;;;;;;;;5008169;28;20245;-77
2022/04/16 00:02:56;;;;;;;3.17;2.87;;;;;;;;;;5005365;28;20249;-77
2022/04/16 00:05:23;;;;;;;3.00;2.70;;;;;;;;;;5007280;28;20191;-77
2022/04/16 00:08:06;;;;;;;3.90;2.87;;;;;;;;;;5006813;28;20215;-77
2022/04/16 00:10:37;;;;;;;3.10;2.80;;;;;;;;;;4990920;28;20269;-77
2022/04/16 00:13:04;;;;;;;3.00;2.63;;;;;;;;;;5004627;28;20218;-78
2022/04/16 00:15:30;;;;;;;3.47;2.50;;;;;;;;;;5004907;28;20222;-77
2022/04/16 00:17:56;;;;;;;3.00;2.73;;;;;;;;;;5007956;28;20191;-77
2022/04/16 00:20:25;;;;;;;2.77;2.40;;;;;;;;;;4991787;28;20742;-77
2022/04/16 00:22:52;;;;;;;2.73;2.50;;;;;;;;;;5023867;28;20591;-77
2022/04/16 00:25:19;;;;;;;2.83;2.60;;;;;;;;;;5008810;28;20677;-77
2022/04/16 00:27:47;;;;;;;2.40;2.20;;;;;;;;;;5009446;28;20176;-77
2022/04/16 00:30:13;;;;;;;3.10;2.80;;;;;;;;;;5009688;28;20187;-77
2022/04/16 00:32:40;;;;;;;3.60;2.80;;;;;;;;;;5007659;28;20179;-77
2022/04/16 00:35:07;;;;;;;2.60;2.40;;;;;;;;;;5008912;28;20226;-77
2022/04/16 00:37:34;;;;;;;2.83;2.50;;;;;;;;;;5007403;28;20219;-77
2022/04/16 00:40:00;;;;;;;3.40;3.10;;;;;;;;;;5008559;28;20659;-77
2022/04/16 00:42:41;;;;;;;2.80;2.50;;;;;;;;;;5003382;28;20190;-77
2022/04/16 00:45:08;;;;;;;2.63;2.40;;;;;;;;;;5024285;28;20678;-77
2022/04/16 00:47:36;;;;;;;2.80;2.50;;;;;;;;;;5007668;28;20246;-77
2022/04/16 00:50:03;;;;;;;2.40;2.20;;;;;;;;;;5007229;28;20573;-77
2022/04/16 00:52:29;;;;;;;3.50;2.47;;;;;;;;;;5008346;28;20218;-77
2022/04/16 00:54:56;;;;;;;3.17;2.50;;;;;;;;;;5008421;28;20191;-77
2022/04/16 00:57:25;;;;;;;4.00;2.50;;;;;;;;;;5007285;28;20211;-77
2022/04/16 00:59:52;;;;;;;2.60;2.40;;;;;;;;;;5007942;28;20741;-77
2022/04/16 01:02:18;;;;;;;3.00;2.70;;;;;;;;;;4990897;28;20245;-77
2022/04/16 01:04:44;;;;;;;2.70;2.50;;;;;;;;;;5007746;28;20726;-77
2022/04/16 01:07:10;;;;;;;2.90;2.30;;;;;;;;;;5005845;28;20207;-77
2022/04/16 01:09:36;;;;;;;2.80;2.60;;;;;;;;;;5007765;28;20281;-77
2022/04/16 01:12:03;;;;;;;3.00;2.67;;;;;;;;;;5023315;28;20274;-77
2022/04/16 01:14:29;;;;;;;3.73;2.60;;;;;;;;;;4990745;28;20219;-77
2022/04/16 01:16:57;;;;;;;3.13;2.57;;;;;;;;;;5009146;28;20966;-77
2022/04/16 01:19:23;;;;;;;2.70;2.50;;;;;;;;;;5001358;28;20194;-77
2022/04/16 01:21:50;;;;;;;2.63;2.43;;;;;;;;;;5008269;28;20187;-77
2022/04/16 01:24:16;;;;;;;3.80;3.10;;;;;;;;;;5007831;28;20198;-77
2022/04/16 01:26:42;;;;;;;2.93;2.73;;;;;;;;;;5007477;28;20730;-77
2022/04/16 01:29:09;;;;;;;3.00;2.80;;;;;;;;;;5005259;28;20198;-77
2022/04/16 01:31:35;;;;;;;3.33;3.03;;;;;;;;;;5007489;28;20191;-77
2022/04/16 01:34:03;;;;;;;3.10;2.83;;;;;;;;;;5006043;28;20218;-77
2022/04/16 01:36:30;;;;;;;3.10;2.70;;;;;;;;;;5006350;28;20298;-77
2022/04/16 01:38:57;;;;;;;3.27;2.97;;;;;;;;;;5006180;28;20187;-77
2022/04/16 01:41:24;;;;;;;3.73;2.90;;;;;;;;;;5007516;28;20194;-77
2022/04/16 01:43:51;;;;;;;3.53;3.23;;;;;;;;;;4992658;28;20731;-77
2022/04/16 01:46:17;;;;;;;5.27;3.37;;;;;;;;;;5001306;28;20600;-77
2022/04/16 01:48:43;;;;;;;3.57;3.17;;;;;;;;;;4990129;28;20245;-77
2022/04/16 01:51:10;;;;;;;4.20;3.13;;;;;;;;;;5019660;28;20190;-77
2022/04/16 01:53:36;;;;;;;3.23;2.90;;;;;;;;;;5007498;28;20861;-78
2022/04/16 01:56:03;;;;;;;3.20;2.90;;;;;;;;;;5006623;28;20203;-77
2022/04/16 01:58:30;;;;;;;3.60;3.07;;;;;;;;;;4973772;28;20198;-77
2022/04/16 02:00:57;;;;;;;4.40;3.40;;;;;;;;;;4988413;28;20207;-77
2022/04/16 02:03:24;;;;;;;4.20;3.57;;;;;;;;;;5007293;28;20841;-77
2022/04/16 02:05:52;;;;;;;4.20;3.80;;;;;;;;;;5003564;28;20264;-77
2022/04/16 02:08:19;;;;;;;4.90;3.23;;;;;;;;;;4990136;28;20214;-77
2022/04/16 02:10:45;;;;;;;3.80;3.50;;;;;;;;;;5007965;28;20207;-77
2022/04/16 02:13:11;;;;;;;3.40;3.10;;;;;;;;;;5007121;28;20608;-77
2022/04/16 02:15:38;;;;;;;3.77;3.47;;;;;;;;;;5009821;28;20199;-77
2022/04/16 02:18:05;;;;;;;3.50;3.17;;;;;;;;;;5004706;28;20183;-77
2022/04/16 02:20:31;;;;;;;4.57;4.17;;;;;;;;;;5005548;28;20250;-77
2022/04/16 02:23:25;;;;;;;3.57;3.27;;;;;;;;;;4982757;28;20242;-78
2022/04/16 02:25:53;;;;;;;3.70;3.40;;;;;;;;;;5000544;28;20207;-77
2022/04/16 02:28:21;;;;;;;4.50;3.33;;;;;;;;;;5007547;28;20258;-77
2022/04/16 02:30:48;;;;;;;4.13;3.57;;;;;;;;;;5007177;28;20213;-77
2022/04/16 02:33:14;;;;;;;4.20;3.80;;;;;;;;;;5006746;28;20214;-77
2022/04/16 02:35:40;;;;;;;4.27;3.73;;;;;;;;;;5007357;28;20281;-77
2022/04/16 02:38:07;;;;;;;5.77;3.70;;;;;;;;;;5006785;28;20187;-77
2022/04/16 02:40:33;;;;;;;3.73;3.43;;;;;;;;;;5007450;28;20249;-77
2022/04/16 02:43:00;;;;;;;4.03;3.63;;;;;;;;;;5003876;28;20195;-77
2022/04/16 02:48:10;;;;;;;4.13;3.73;;;;;;;;;;4989954;28;20187;-77
2022/04/16 02:50:37;;;;;;;4.10;3.63;;;;;;;;;;5007831;28;20179;-77
2022/04/16 02:53:03;;;;;;;4.17;3.70;;;;;;;;;;5006423;28;20215;-77
2022/04/16 02:55:29;;;;;;;3.83;3.43;;;;;;;;;;5005927;28;20187;-77
2022/04/16 02:57:56;;;;;;;4.03;3.53;;;;;;;;;;5004895;28;20647;-77
2022/04/16 03:00:22;;;;;;;3.87;3.57;;;;;;;;;;5005480;28;20226;-77
2022/04/16 03:02:50;;;;;;;3.60;3.30;;;;;;;;;;5006559;28;20210;-77
2022/04/16 03:05:16;;;;;;;4.20;3.80;;;;;;;;;;5005803;28;20218;-77
2022/04/16 03:07:42;;;;;;;3.70;3.40;;;;;;;;;;5006923;28;20261;-77
2022/04/16 03:10:09;;;;;;;3.90;3.60;;;;;;;;;;5004571;28;20210;-77
2022/04/16 03:12:42;;;;;;;3.53;3.23;;;;;;;;;;5007753;28;20187;-77
2022/04/16 03:17:54;;;;;;;3.83;3.40;;;;;;;;;;4986680;28;20228;-77
2022/04/16 03:20:20;;;;;;;6.00;3.97;;;;;;;;;;5009520;28;20183;-78
2022/04/16 03:22:46;;;;;;;4.40;4.00;;;;;;;;;;5008169;28;20381;-77
2022/04/16 03:25:12;;;;;;;3.90;3.50;;;;;;;;;;5004628;28;20286;-77
2022/04/16 03:27:39;;;;;;;3.60;3.30;;;;;;;;;;5008658;28;20706;-77
2022/04/16 03:30:06;;;;;;;3.80;3.50;;;;;;;;;;5008995;28;20191;-77
2022/04/16 03:32:32;;;;;;;5.00;3.23;;;;;;;;;;5010640;28;20222;-77
2022/04/16 03:34:58;;;;;;;3.30;3.00;;;;;;;;;;5008411;28;20226;-77
2022/04/16 03:37:30;;;;;;;4.57;3.30;;;;;;;;;;5009197;28;20710;-77
2022/04/16 03:39:56;;;;;;;4.47;3.47;;;;;;;;;;4991003;28;20201;-77
2022/04/16 03:42:22;;;;;;;4.30;3.60;;;;;;;;;;5019067;28;20179;-77
2022/04/16 03:44:49;;;;;;;4.00;3.60;;;;;;;;;;4985720;28;20195;-77
2022/04/16 03:47:15;;;;;;;4.30;3.57;;;;;;;;;;5008598;28;20685;-77
2022/04/16 03:49:41;;;;;;;3.93;3.53;;;;;;;;;;5010481;28;20203;-77
2022/04/16 03:52:07;;;;;;;3.63;3.30;;;;;;;;;;5006531;28;20195;-78
2022/04/16 04:00:24;;;;;;;4.40;4.00;;;;;;;;;;5000340;28;20681;-78
2022/04/16 04:02:50;;;;;;;4.10;3.70;;;;;;;;;;4991647;28;20686;-77
2022/04/16 04:05:16;;;;;;;4.23;3.70;;;;;;;;;;5002867;28;20275;-77
2022/04/16 04:07:42;;;;;;;4.37;3.03;;;;;;;;;;5025453;28;20639;-78
2022/04/16 04:10:10;;;;;;;3.63;3.33;;;;;;;;;;5005212;28;20278;-77
2022/04/16 04:12:36;;;;;;;4.27;3.87;;;;;;;;;;5007265;28;20298;-77
2022/04/16 04:15:02;;;;;;;4.57;3.93;;;;;;;;;;5026362;28;20865;-77
2022/04/16 04:17:29;;;;;;;3.87;3.47;;;;;;;;;;5012156;28;20247;-78
2022/04/16 04:19:56;;;;;;;3.87;3.40;;;;;;;;;;5009622;28;20213;-78
2022/04/16 04:22:22;;;;;;;3.77;3.37;;;;;;;;;;5010290;28;20182;-78
2022/04/16 04:24:48;;;;;;;3.50;3.20;;;;;;;;;;5008757;28;20260;-78
2022/04/16 04:27:14;;;;;;;3.97;3.57;;;;;;;;;;4976213;28;20729;-77
2022/04/16 04:29:41;;;;;;;3.63;3.33;;;;;;;;;;5007734;28;20191;-77
2022/04/16 04:32:08;;;;;;;4.30;3.70;;;;;;;;;;5000431;28;20191;-77
2022/04/16 04:34:54;;;;;;;5.07;3.70;;;;;;;;;;5008092;28;20210;-77
2022/04/16 04:37:20;;;;;;;7.40;3.70;;;;;;;;;;5006874;28;20210;-77
2022/04/16 04:39:46;;;;;;;6.03;3.90;;;;;;;;;;4976175;28;20183;-77
2022/04/16 04:42:13;;;;;;;4.67;3.53;;;;;;;;;;4992052;28;20647;-78
2022/04/16 04:44:39;;;;;;;3.70;3.40;;;;;;;;;;5007724;28;20195;-77
2022/04/16 04:47:05;;;;;;;4.17;3.77;;;;;;;;;;5005959;28;20243;-77
2022/04/16 04:49:31;;;;;;;4.27;3.63;;;;;;;;;;5009424;28;20191;-78
2022/04/16 04:51:57;;;;;;;3.53;3.23;;;;;;;;;;5008189;28;20573;-77
2022/04/16 04:54:23;;;;;;;4.20;3.63;;;;;;;;;;4992181;28;20207;-77
2022/04/16 04:56:49;;;;;;;6.40;3.53;;;;;;;;;;5009560;28;20211;-77
2022/04/16 04:59:16;;;;;;;3.50;3.20;;;;;;;;;;5006927;28;20651;-77
2022/04/16 05:01:42;;;;;;;4.37;3.43;;;;;;;;;;5003957;28;20191;-77
2022/04/16 05:04:08;;;;;;;4.60;3.37;;;;;;;;;;5006487;28;20188;-77
2022/04/16 05:06:34;;;;;;;4.43;3.70;;;;;;;;;;5021786;28;20246;-77
2022/04/16 05:09:00;;;;;;;5.73;4.80;;;;;;;;;;5004775;28;20187;-77
2022/04/16 05:11:27;;;;;;;7.73;5.63;;;;;;;;;;5014323;28;20203;-77
2022/04/16 05:13:53;;;;;;;8.23;5.63;;;;;;;;;;5007354;28;20215;-77
2022/04/16 05:16:19;;;;;;;5.40;4.10;;;;;;;;;;5005171;28;20214;-77
2022/04/16 05:18:46;;;;;;;5.53;3.40;;;;;;;;;;5003304;28;20286;-77
2022/04/16 05:21:12;;;;;;;3.87;3.47;;;;;;;;;;5004183;28;20198;-77
2022/04/16 05:23:41;;;;;;;4.00;3.50;;;;;;;;;;5003392;28;20191;-77
2022/04/16 05:26:11;;;;;;;3.87;3.30;;;;;;;;;;5001897;28;20219;-77
2022/04/16 05:28:37;;;;;;;4.03;3.57;;;;;;;;;;5003018;28;20187;-78
2022/04/16 05:31:04;;;;;;;4.57;3.40;;;;;;;;;;5005325;28;20195;-77
2022/04/16 05:36:16;;;;;;;4.30;3.63;;;;;;;;;;5003899;28;20301;-77
2022/04/16 05:38:45;;;;;;;4.47;3.30;;;;;;;;;;5005169;28;20183;-77
2022/04/16 05:41:12;;;;;;;3.40;3.10;;;;;;;;;;5006846;28;20191;-77
2022/04/16 05:43:38;;;;;;;5.43;3.33;;;;;;;;;;5007199;28;20245;-77
2022/04/16 05:46:04;;;;;;;3.30;3.00;;;;;;;;;;5008548;28;20872;-81
2022/04/16 05:48:30;;;;;;;3.50;3.20;;;;;;;;;;4993336;28;20275;-79
2022/04/16 05:50:57;;;;;;;3.60;3.13;;;;;;;;;;5004292;28;20202;-79
2022/04/16 05:53:24;;;;;;;3.43;3.13;;;;;;;;;;5006516;28;20210;-76
2022/04/16 05:55:51;;;;;;;3.67;2.90;;;;;;;;;;5007162;28;20626;-77
2022/04/16 05:58:17;;;;;;;4.00;2.90;;;;;;;;;;5003868;28;20198;-77
2022/04/16 06:00:44;;;;;;;4.73;3.37;;;;;;;;;;5007841;28;20226;-78
2022/04/16 06:03:10;;;;;;;4.73;3.40;;;;;;;;;;5007275;28;20183;-79
2022/04/16 06:05:37;;;;;;;4.43;3.03;;;;;;;;;;4991921;28;20214;-77
2022/04/16 06:08:03;;;;;;;3.87;3.50;;;;;;;;;;5006747;28;20254;-77
2022/04/16 06:10:29;;;;;;;3.57;3.27;;;;;;;;;;5006545;28;20195;-77
2022/04/16 06:12:55;;;;;;;3.90;3.30;;;;;;;;;;5006345;28;20651;-77
2022/04/16 06:15:22;;;;;;;3.40;3.10;;;;;;;;;;5007108;28;20193;-77
2022/04/16 06:17:48;;;;;;;3.17;2.80;;;;;;;;;;5011250;28;20184;-86
2022/04/16 06:20:14;;;;;;;3.83;3.40;;;;;;;;;;4995554;28;20190;-80
2022/04/16 06:22:40;;;;;;;5.77;3.40;;;;;;;;;;5010529;28;20260;-81
2022/04/16 06:25:08;;;;;;;3.70;3.03;;;;;;;;;;4993637;28;20192;-81
2022/04/16 06:27:38;;;;;;;4.17;3.50;;;;;;;;;;5009094;28;20206;-82
2022/04/16 06:30:08;;;;;;;5.13;3.50;;;;;;;;;;5012883;28;20187;-81
2022/04/16 06:32:35;;;;;;;3.77;3.40;;;;;;;;;;4990241;28;20222;-81
2022/04/16 06:35:01;;;;;;;3.63;3.30;;;;;;;;;;5002721;28;20227;-82
2022/04/16 06:37:28;;;;;;;4.23;3.80;;;;;;;;;;5013923;28;20213;-82
2022/04/16 06:39:54;;;;;;;4.20;3.40;;;;;;;;;;5027741;28;20187;-80
2022/04/16 06:42:20;;;;;;;4.70;3.73;;;;;;;;;;5011821;28;20271;-81
2022/04/16 06:44:47;;;;;;;4.13;3.73;;;;;;;;;;4994974;28;20195;-81
2022/04/16 06:47:13;;;;;;;4.57;3.80;;;;;;;;;;5009380;28;20219;-81
2022/04/16 06:49:39;;;;;;;5.23;3.40;;;;;;;;;;4997817;28;20218;-81
2022/04/16 06:52:05;;;;;;;4.00;3.60;;;;;;;;;;5013817;28;20201;-81
2022/04/16 06:54:32;;;;;;;4.30;3.53;;;;;;;;;;5012928;28;20649;-82
2022/04/16 06:56:58;;;;;;;3.77;3.23;;;;;;;;;;5028847;28;20199;-81
2022/04/16 06:59:24;;;;;;;3.63;3.33;;;;;;;;;;5011669;28;20626;-81
2022/04/16 07:01:50;;;;;;;3.83;3.20;;;;;;;;;;5009800;28;20612;-81
2022/04/16 07:04:17;;;;;;;4.60;3.50;;;;;;;;;;5010252;28;20222;-81
2022/04/16 07:06:43;;;;;;;3.80;3.30;;;;;;;;;;4999004;28;20223;-81
2022/04/16 07:09:10;;;;;;;5.23;3.47;;;;;;;;;;5012001;28;20195;-81
2022/04/16 07:11:36;;;;;;;4.07;3.57;;;;;;;;;;4995331;28;20191;-81
2022/04/16 07:14:03;;;;;;;4.13;3.50;;;;;;;;;;4996489;28;20298;-80
2022/04/16 07:16:29;;;;;;;4.23;3.40;;;;;;;;;;5015689;28;20634;-81
2022/04/16 07:18:55;;;;;;;4.90;3.80;;;;;;;;;;4994465;28;20233;-80
2022/04/16 07:21:21;;;;;;;5.13;3.37;;;;;;;;;;5009912;28;20197;-81
2022/04/16 07:23:48;;;;;;;3.50;3.20;;;;;;;;;;5012892;28;20822;-80
2022/04/16 07:26:14;;;;;;;4.17;3.23;;;;;;;;;;5010809;28;20215;-79
2022/04/16 07:28:41;;;;;;;3.07;2.77;;;;;;;;;;4979512;28;20194;-78
2022/04/16 07:31:07;;;;;;;4.30;3.80;;;;;;;;;;4997627;28;20215;-79
2022/04/16 07:33:34;;;;;;;4.80;3.63;;;;;;;;;;4980298;28;20242;-81
2022/04/16 07:36:00;;;;;;;3.57;3.27;;;;;;;;;;5010415;28;20206;-81
2022/04/16 07:38:27;;;;;;;3.53;3.23;;;;;;;;;;4992903;28;20277;-81
2022/04/16 07:40:54;;;;;;;4.07;3.60;;;;;;;;;;5009936;28;20187;-81
2022/04/16 07:43:20;;;;;;;3.87;3.20;;;;;;;;;;5009229;28;20674;-80
2022/04/16 07:45:47;;;;;;;5.00;3.90;;;;;;;;;;4994037;28;20231;-80
2022/04/16 07:48:13;;;;;;;3.60;3.20;;;;;;;;;;5009668;28;21016;-80
2022/04/16 07:50:39;;;;;;;4.27;3.50;;;;;;;;;;5011618;28;21017;-80
2022/04/16 07:53:06;;;;;;;4.73;3.40;;;;;;;;;;5010179;28;20191;-80
2022/04/16 07:55:33;;;;;;;5.20;3.50;;;;;;;;;;5013591;28;20250;-80
2022/04/16 07:58:00;;;;;;;3.83;3.53;;;;;;;;;;5028908;28;20215;-81
2022/04/16 08:00:27;;;;;;;3.90;3.30;;;;;;;;;;4993923;28;20197;-81
2022/04/16 08:02:53;;;;;;;3.43;3.10;;;;;;;;;;4994267;28;20553;-81
2022/04/16 08:05:19;;;;;;;3.93;3.47;;;;;;;;;;5005237;28;20211;-81
2022/04/16 08:07:46;;;;;;;5.00;3.57;;;;;;;;;;5006669;28;20187;-81
2022/04/16 08:10:12;;;;;;;3.87;3.50;;;;;;;;;;4991172;28;20233;-81
2022/04/16 08:12:38;;;;;;;6.57;2.97;;;;;;;;;;5010768;28;20654;-81
2022/04/16 08:15:11;;;;;;;3.57;3.27;;;;;;;;;;5010439;28;20211;-81
2022/04/16 08:17:38;;;;;;;4.03;3.10;;;;;;;;;;4994203;28;20210;-80
2022/04/16 08:20:06;;;;;;;3.70;3.20;;;;;;;;;;5010470;28;20274;-80
2022/04/16 08:22:34;;;;;;;3.70;3.30;;;;;;;;;;4992908;28;20199;-78
2022/04/16 08:27:56;;;;;;;3.10;2.80;;;;;;;;;;4993757;28;20191;-80
2022/04/16 08:30:22;;;;;;;3.10;2.80;;;;;;;;;;4996623;28;20195;-85
2022/04/16 08:32:49;;;;;;;3.50;3.20;;;;;;;;;;5004918;28;20187;-81
2022/04/16 08:35:16;;;;;;;3.10;2.70;;;;;;;;;;4975319;28;20195;-80
2022/04/16 08:37:43;;;;;;;3.27;2.97;;;;;;;;;;5009225;28;20179;-81
2022/04/16 08:40:10;;;;;;;3.10;2.80;;;;;;;;;;4989700;28;20249;-81
2022/04/16 08:42:37;;;;;;;4.57;3.00;;;;;;;;;;4992256;28;20210;-81
2022/04/16 08:45:05;;;;;;;3.57;3.10;;;;;;;;;;5011485;28;20636;-80
2022/04/16 08:47:32;;;;;;;2.93;2.63;;;;;;;;;;4995421;28;20243;-81
2022/04/16 08:50:00;;;;;;;3.00;2.70;;;;;;;;;;4992300;28;20278;-81
2022/04/16 08:52:30;;;;;;;3.50;3.07;;;;;;;;;;5008511;28;20195;-81
2022/04/16 08:54:57;;;;;;;3.10;2.80;;;;;;;;;;4994172;28;20226;-81
2022/04/16 08:57:24;;;;;;;3.20;2.90;;;;;;;;;;5010091;28;20586;-80
2022/04/16 08:59:51;;;;;;;3.20;2.80;;;;;;;;;;5008303;28;20199;-81
2022/04/16 09:02:38;;;;;;;3.03;2.73;;;;;;;;;;5009478;28;20186;-80
2022/04/16 09:05:08;;;;;;;3.10;2.80;;;;;;;;;;5023482;28;20195;-81
2022/04/16 09:07:46;;;;;;;3.00;2.70;;;;;;;;;;4991093;28;20241;-81
2022/04/16 09:10:12;;;;;;;3.20;2.60;;;;;;;;;;5009345;28;20202;-80
2022/04/16 09:12:40;;;;;;;3.03;2.63;;;;;;;;;;4976057;28;20195;-81
2022/04/16 09:15:07;;;;;;;2.90;2.60;;;;;;;;;;4993840;28;20203;-81
2022/04/16 09:17:33;;;;;;;3.03;2.70;;;;;;;;;;5009999;28;20333;-81
2022/04/16 09:19:59;;;;;;;2.70;2.50;;;;;;;;;;5010004;28;20234;-81
2022/04/16 09:22:32;;;;;;;3.10;2.67;;;;;;;;;;5010706;28;20272;-81
2022/04/16 09:24:59;;;;;;;3.03;2.70;;;;;;;;;;5011339;28;20191;-81
2022/04/16 09:27:25;;;;;;;3.37;2.80;;;;;;;;;;5009542;28;20224;-81
2022/04/16 09:29:54;;;;;;;4.90;3.07;;;;;;;;;;4978698;28;20198;-80
2022/04/16 09:32:24;;;;;;;2.80;2.60;;;;;;;;;;4996631;28;20198;-80
2022/04/16 09:34:54;;;;;;;3.07;2.77;;;;;;;;;;5008607;28;20215;-81
2022/04/16 09:37:23;;;;;;;3.53;3.20;;;;;;;;;;5005297;28;20206;-81
2022/04/16 09:39:49;;;;;;;5.10;3.50;;;;;;;;;;5006225;28;20290;-78
2022/04/16 09:42:26;;;;;;;3.83;3.17;;;;;;;;;;5009770;28;20647;-81
2022/04/16 09:44:52;;;;;;;3.43;3.10;;;;;;;;;;4978335;28;20654;-82
2022/04/16 09:47:22;;;;;;;3.43;3.13;;;;;;;;;;5006861;28;20887;-80
2022/04/16 09:49:48;;;;;;;4.10;3.30;;;;;;;;;;5006859;28;20194;-80
2022/04/16 09:52:15;;;;;;;3.90;3.47;;;;;;;;;;5015316;28;20191;-80
2022/04/16 09:54:43;;;;;;;3.67;3.27;;;;;;;;;;5005892;28;20695;-80
2022/04/16 09:57:09;;;;;;;4.60;3.73;;;;;;;;;;5011533;28;20211;-79
2022/04/16 09:59:36;;;;;;;3.60;3.07;;;;;;;;;;4994945;28;20286;-79
2022/04/16 10:02:03;;;;;;;3.23;2.90;;;;;;;;;;5000118;28;20193;-80
2022/04/16 10:04:30;;;;;;;4.47;3.20;;;;;;;;;;4995996;28;20651;-80
2022/04/16 10:06:57;;;;;;;4.40;3.47;;;;;;;;;;4990968;28;20215;-80
2022/04/16 10:09:26;;;;;;;5.07;3.87;;;;;;;;;;4978637;28;20203;-80
2022/04/16 10:14:40;;;;;;;4.53;2.93;;;;;;;;;;5012440;28;20274;-80
2022/04/16 10:17:10;;;;;;;3.60;3.00;;;;;;;;;;4993179;28;20218;-80
2022/04/16 10:19:40;;;;;;;4.47;3.47;;;;;;;;;;4993878;28;20214;-80
2022/04/16 10:22:06;;;;;;;4.07;3.07;;;;;;;;;;5003515;28;20219;-80
2022/04/16 10:24:32;;;;;;;3.77;2.57;;;;;;;;;;4992228;28;20198;-81
2022/04/16 10:27:07;;;;;;;3.13;2.63;;;;;;;;;;4997261;28;20211;-80
2022/04/16 10:29:39;;;;;;;3.70;2.80;;;;;;;;;;5014966;28;20198;-81
2022/04/16 10:32:18;;;;;;;2.60;2.40;;;;;;;;;;5007637;28;20199;-80
2022/04/16 10:34:50;;;;;;;2.87;2.50;;;;;;;;;;4997872;28;20222;-79
2022/04/16 10:37:21;;;;;;;4.60;2.90;;;;;;;;;;4997554;28;20211;-80
2022/04/16 10:39:48;;;;;;;3.37;2.67;;;;;;;;;;5026602;28;20197;-80
2022/04/16 10:42:14;;;;;;;4.40;3.23;;;;;;;;;;5029411;28;20238;-80
2022/04/16 10:44:44;;;;;;;3.60;2.83;;;;;;;;;;5022329;28;20214;-80
2022/04/16 10:47:11;;;;;;;2.60;2.40;;;;;;;;;;4980330;28;20211;-82
2022/04/16 10:49:40;;;;;;;2.87;2.57;;;;;;;;;;5017350;28;20219;-83
2022/04/16 10:52:18;;;;;;;2.53;2.27;;;;;;;;;;5013952;28;20191;-81
2022/04/16 10:54:47;;;;;;;2.60;2.40;;;;;;;;;;5016899;28;20341;-84
2022/04/16 10:57:20;;;;;;;3.33;2.20;;;;;;;;;;4989285;28;20211;-79
2022/04/16 10:59:46;;;;;;;2.70;2.10;;;;;;;;;;4995393;28;20270;-80
2022/04/16 11:02:27;;;;;;;2.67;2.40;;;;;;;;;;5004899;28;20211;-81
2022/04/16 11:04:57;;;;;;;2.20;1.97;;;;;;;;;;4997068;28;20199;-80
2022/04/16 11:07:24;;;;;;;2.10;1.80;;;;;;;;;;5017152;28;20216;-81
2022/04/16 11:09:53;;;;;;;2.23;2.00;;;;;;;;;;5013562;28;20573;-80
2022/04/16 11:12:23;;;;;;;2.70;2.47;;;;;;;;;;5015482;28;20274;-81
2022/04/16 11:14:53;;;;;;;3.20;1.97;;;;;;;;;;5016162;28;20402;-81
2022/04/16 11:17:19;;;;;;;2.20;1.97;;;;;;;;;;4998278;28;20257;-81
2022/04/16 11:19:47;;;;;;;2.27;2.03;;;;;;;;;;5010719;28;20179;-81
2022/04/16 11:22:17;;;;;;;1.90;1.80;;;;;;;;;;5008266;28;20191;-81
2022/04/16 11:24:46;;;;;;;4.27;2.00;;;;;;;;;;4995624;28;20207;-80
2022/04/16 11:35:27;;;;;;;3.07;1.90;;;;;;;;;;4989902;28;20267;-81
2022/04/16 11:37:54;;;;;;;1.97;1.73;;;;;;;;;;5005177;28;20225;-81
2022/04/16 11:40:20;;;;;;;2.70;2.30;;;;;;;;;;4977406;28;20264;-81
2022/04/16 11:42:47;;;;;;;2.00;1.80;;;;;;;;;;5012073;28;20230;-81
2022/04/16 11:45:16;;;;;;;6.30;2.13;;;;;;;;;;4996336;28;20717;-80
2022/04/16 11:47:43;;;;;;;3.03;2.10;;;;;;;;;;4992194;28;20859;-81
2022/04/16 11:50:10;;;;;;;2.10;1.90;;;;;;;;;;5019192;28;20270;-81
2022/04/16 11:52:37;;;;;;;2.40;1.83;;;;;;;;;;5011520;28;20191;-81
2022/04/16 11:55:07;;;;;;;3.00;1.93;;;;;;;;;;5007852;28;20207;-80
2022/04/16 11:57:34;;;;;;;2.20;2.00;;;;;;;;;;5003403;28;20307;-81
2022/04/16 12:00:04;;;;;;;2.67;2.00;;;;;;;;;;5007679;28;20206;-81
2022/04/16 12:02:37;;;;;;;2.37;1.90;;;;;;;;;;4996867;28;20198;-82
2022/04/16 12:05:14;;;;;;;3.63;2.20;;;;;;;;;;4995662;28;20187;-82
2022/04/16 12:07:48;;;;;;;2.23;2.00;;;;;;;;;;5005462;28;20271;-79
2022/04/16 12:10:15;;;;;;;2.90;1.80;;;;;;;;;;4988319;28;20210;-82
2022/04/16 12:12:47;;;;;;;3.40;1.90;;;;;;;;;;5009627;28;20216;-82
2022/04/16 12:15:20;;;;;;;2.87;1.90;;;;;;;;;;5012026;28;20226;-82
2022/04/16 12:17:53;;;;;;;5.03;1.70;;;;;;;;;;4993089;28;20199;-82
2022/04/16 12:20:24;;;;;;;2.43;1.90;;;;;;;;;;4997171;28;20658;-84
2022/04/16 12:23:00;;;;;;;2.50;1.90;;;;;;;;;;4994948;28;20188;-81
2022/04/16 12:25:27;;;;;;;2.43;1.70;;;;;;;;;;5012542;28;20187;-85
2022/04/16 12:27:55;;;;;;;2.87;1.83;;;;;;;;;;5009651;28;20259;-82
2022/04/16 12:30:27;;;;;;;1.60;1.50;;;;;;;;;;5013783;28;20834;-85
2022/04/16 12:32:57;;;;;;;2.67;2.00;;;;;;;;;;4998122;28;20245;-83
2022/04/16 12:35:24;;;;;;;1.80;1.50;;;;;;;;;;4994735;28;20192;-86
2022/04/16 12:37:58;;;;;;;1.80;1.60;;;;;;;;;;4993867;28;20230;-82
2022/04/16 12:40:25;;;;;;;2.97;1.93;;;;;;;;;;4996942;28;20221;-85
2022/04/16 12:42:58;;;;;;;2.37;1.83;;;;;;;;;;5011929;28;20188;-82
2022/04/16 12:45:30;;;;;;;1.80;1.60;;;;;;;;;;4993793;28;20304;-83
2022/04/16 12:47:57;;;;;;;1.93;1.60;;;;;;;;;;4990503;28;20682;-83
2022/04/16 12:50:26;;;;;;;2.80;1.43;;;;;;;;;;4992365;28;20711;-83
2022/04/16 12:52:56;;;;;;;1.93;1.70;;;;;;;;;;5002037;28;20698;-84
2022/04/16 12:55:22;;;;;;;1.67;1.40;;;;;;;;;;5000614;28;20222;-80
2022/04/16 12:57:49;;;;;;;2.60;1.50;;;;;;;;;;5001320;28;20674;-80
2022/04/16 13:00:18;;;;;;;1.53;1.43;;;;;;;;;;4994755;28;21600;-80
2022/04/16 13:02:46;;;;;;;2.67;1.60;;;;;;;;;;5003665;28;20183;-81
2022/04/16 13:05:15;;;;;;;2.07;1.50;;;;;;;;;;4988713;28;20582;-81
2022/04/16 13:07:46;;;;;;;1.40;1.30;;;;;;;;;;4990909;28;20702;-81
2022/04/16 13:10:32;;;;;;;1.50;1.40;;;;;;;;;;5002139;28;20816;-81
2022/04/16 13:13:02;;;;;;;1.50;1.40;;;;;;;;;;4988537;28;20221;-82
2022/04/16 13:15:29;;;;;;;2.20;1.70;;;;;;;;;;5006485;28;20313;-81
2022/04/16 13:18:03;;;;;;;2.87;1.50;;;;;;;;;;5004366;28;20264;-81
2022/04/16 13:20:29;;;;;;;1.97;1.50;;;;;;;;;;5022840;28;20195;-81
2022/04/16 13:22:55;;;;;;;2.33;1.40;;;;;;;;;;5001536;28;20195;-86
2022/04/16 13:25:22;;;;;;;1.53;1.43;;;;;;;;;;4968621;28;20218;-83
2022/04/16 13:27:52;;;;;;;1.43;1.30;;;;;;;;;;4988358;28;20241;-84
2022/04/16 13:30:24;;;;;;;2.53;1.50;;;;;;;;;;5005832;28;20261;-83
2022/04/16 13:32:56;;;;;;;3.17;1.63;;;;;;;;;;5015132;28;20280;-83
2022/04/16 13:35:26;;;;;;;2.00;1.50;;;;;;;;;;5014739;28;20193;-81
2022/04/16 13:37:55;;;;;;;1.93;1.43;;;;;;;;;;5013384;28;20195;-82
2022/04/16 13:43:10;;;;;;;2.10;1.50;;;;;;;;;;5008483;28;20243;-82
2022/04/16 13:45:40;;;;;;;2.67;1.60;;;;;;;;;;5006064;28;20187;-82
2022/04/16 13:48:07;;;;;;;1.50;1.40;;;;;;;;;;5005312;28;20211;-81
2022/04/16 13:50:35;;;;;;;3.00;1.30;;;;;;;;;;4993679;28;20273;-82
2022/04/16 13:53:01;;;;;;;2.27;1.53;;;;;;;;;;5013897;28;20182;-81
2022/04/16 13:55:31;;;;;;;2.10;1.50;;;;;;;;;;5012184;28;20191;-82
2022/04/16 13:57:57;;;;;;;1.47;1.37;;;;;;;;;;5011800;28;20556;-81
2022/04/16 14:00:23;;;;;;;1.40;1.20;;;;;;;;;;4991363;28;20648;-81
2022/04/16 14:02:55;;;;;;;2.13;1.50;;;;;;;;;;4995975;28;20609;-81
2022/04/16 14:08:09;;;;;;;1.73;1.40;;;;;;;;;;5004609;28;20188;-81
2022/04/16 14:10:36;;;;;;;2.47;1.50;;;;;;;;;;4995794;28;20631;-80
2022/04/16 14:13:12;;;;;;;2.80;1.40;;;;;;;;;;5013081;28;20197;-80
2022/04/16 14:15:44;;;;;;;1.90;1.50;;;;;;;;;;5027601;28;20270;-81
2022/04/16 14:18:13;;;;;;;1.40;1.30;;;;;;;;;;5029575;28;20193;-81
2022/04/16 14:20:40;;;;;;;2.60;1.40;;;;;;;;;;5011839;28;20198;-82
2022/04/16 14:23:07;;;;;;;1.57;1.33;;;;;;;;;;5011284;28;20199;-82
2022/04/16 14:25:34;;;;;;;1.50;1.40;;;;;;;;;;5014260;28;20183;-82
2022/04/16 14:28:01;;;;;;;1.50;1.40;;;;;;;;;;5012090;28;20535;-81
2022/04/16 14:30:31;;;;;;;1.60;1.50;;;;;;;;;;5011857;28;20238;-80
2022/04/16 14:33:01;;;;;;;1.83;1.60;;;;;;;;;;4996412;28;20187;-80
2022/04/16 14:35:29;;;;;;;2.40;1.40;;;;;;;;;;5011439;28;20243;-81
2022/04/16 14:37:58;;;;;;;1.97;1.50;;;;;;;;;;5014068;28;20183;-81
2022/04/16 14:40:25;;;;;;;2.60;1.60;;;;;;;;;;5012396;28;20194;-81
2022/04/16 14:42:54;;;;;;;1.60;1.50;;;;;;;;;;5009278;28;20228;-81
2022/04/16 14:45:24;;;;;;;1.40;1.27;;;;;;;;;;5012287;28;20197;-81
2022/04/16 14:47:53;;;;;;;1.57;1.40;;;;;;;;;;4998101;28;20193;-81
2022/04/16 14:50:25;;;;;;;2.97;1.73;;;;;;;;;;4979749;28;20204;-80
2022/04/16 14:52:52;;;;;;;1.77;1.50;;;;;;;;;;4995854;28;20192;-82
2022/04/16 14:55:19;;;;;;;1.60;1.50;;;;;;;;;;5013663;28;20308;-82
2022/04/16 14:57:45;;;;;;;1.80;1.60;;;;;;;;;;5015323;28;20191;-83
2022/04/16 15:00:12;;;;;;;1.63;1.40;;;;;;;;;;4996640;28;20210;-82
2022/04/16 15:02:47;;;;;;;2.27;1.70;;;;;;;;;;5009926;28;20191;-82
2022/04/16 15:05:15;;;;;;;1.67;1.57;;;;;;;;;;4995343;28;20203;-82
2022/04/16 15:07:45;;;;;;;2.20;1.77;;;;;;;;;;5023582;28;20183;-81
2022/04/16 15:10:14;;;;;;;1.80;1.40;;;;;;;;;;5018709;28;20221;-82
2022/04/16 15:12:40;;;;;;;2.60;1.60;;;;;;;;;;5018464;28;20215;-82
2022/04/16 15:15:09;;;;;;;4.50;1.80;;;;;;;;;;5017839;28;20215;-83
2022/04/16 15:17:37;;;;;;;1.73;1.53;;;;;;;;;;4999395;28;20233;-82
2022/04/16 15:20:04;;;;;;;1.67;1.47;;;;;;;;;;5019269;28;20219;-81